Time;durP1;ratioP1;P1;durP2;ratioP2;P2;SDS_P1;SDS_P2;PMS_P1;PMS_P2;Temp;Humidity;BMP_temperature;BMP_pressure;BME280_temperature;BME280_humidity;BME280_pressure;Samples;Min_cycle;Max_cycle;Signal;HPM_P1;HPM_P2
2023/05/08 00:00:22;;;;;;;9.70;8.32;;;;;;;;;;5107335;28;20321;-71
2023/05/08 00:02:48;;;;;;;8.48;7.60;;;;;;;;;;5110610;28;20039;-71
2023/05/08 00:05:14;;;;;;;12.43;9.00;;;;;;;;;;5111031;28;20046;-72
2023/05/08 00:07:40;;;;;;;8.88;7.93;;;;;;;;;;5109097;28;20023;-62
2023/05/08 00:10:07;;;;;;;9.85;8.82;;;;;;;;;;5112435;28;20149;-71
2023/05/08 00:12:33;;;;;;;11.25;7.60;;;;;;;;;;5111528;28;20545;-69
2023/05/08 00:14:59;;;;;;;9.15;8.15;;;;;;;;;;5110528;28;20476;-72
2023/05/08 00:17:25;;;;;;;8.80;7.90;;;;;;;;;;5111488;28;20020;-71
2023/05/08 00:19:51;;;;;;;8.98;7.88;;;;;;;;;;5111748;28;20032;-68
2023/05/08 00:22:18;;;;;;;9.70;8.15;;;;;;;;;;5111487;28;20023;-72
2023/05/08 00:24:44;;;;;;;10.52;8.82;;;;;;;;;;5110460;28;20092;-72
2023/05/08 00:27:10;;;;;;;10.50;8.90;;;;;;;;;;5113007;28;20371;-59
2023/05/08 00:29:36;;;;;;;9.88;8.10;;;;;;;;;;5111760;28;20028;-72
2023/05/08 00:32:02;;;;;;;10.25;8.43;;;;;;;;;;5110714;28;20032;-71
2023/05/08 00:34:28;;;;;;;10.70;9.35;;;;;;;;;;5110316;28;20506;-70
2023/05/08 00:36:56;;;;;;;10.02;8.80;;;;;;;;;;5110525;28;20027;-72
2023/05/08 00:39:22;;;;;;;11.57;9.48;;;;;;;;;;5110330;28;20102;-71
2023/05/08 00:41:48;;;;;;;11.23;8.90;;;;;;;;;;5110193;28;20102;-71
2023/05/08 00:44:14;;;;;;;9.85;8.63;;;;;;;;;;5110583;27;20035;-70
2023/05/08 00:46:40;;;;;;;10.15;9.15;;;;;;;;;;5110370;28;20020;-58
2023/05/08 00:49:06;;;;;;;9.68;8.68;;;;;;;;;;5111867;28;20061;-71
2023/05/08 00:51:33;;;;;;;12.30;10.45;;;;;;;;;;5110347;28;20043;-72
2023/05/08 00:53:59;;;;;;;10.77;9.68;;;;;;;;;;5109736;28;20035;-71
2023/05/08 00:56:26;;;;;;;10.65;9.55;;;;;;;;;;5111803;27;20110;-71
2023/05/08 00:58:53;;;;;;;11.02;9.23;;;;;;;;;;5110166;28;20588;-72
2023/05/08 01:01:19;;;;;;;10.48;9.43;;;;;;;;;;5110568;28;20514;-72
2023/05/08 01:03:46;;;;;;;11.13;8.80;;;;;;;;;;5110648;27;20185;-70
2023/05/08 01:06:12;;;;;;;11.32;9.95;;;;;;;;;;5109722;28;20035;-71
2023/05/08 01:08:38;;;;;;;11.52;9.90;;;;;;;;;;5109893;28;20053;-69
2023/05/08 01:11:07;;;;;;;12.05;9.63;;;;;;;;;;5110421;28;20027;-71
2023/05/08 01:13:53;;;;;;;11.95;10.38;;;;;;;;;;5108853;28;20081;-69
2023/05/08 01:16:22;;;;;;;10.63;9.52;;;;;;;;;;5108879;28;20039;-70
2023/05/08 01:18:53;;;;;;;10.50;9.40;;;;;;;;;;5111353;28;20503;-72
2023/05/08 01:21:33;;;;;;;10.88;9.75;;;;;;;;;;5111260;28;20032;-71
2023/05/08 01:24:18;;;;;;;10.73;9.32;;;;;;;;;;5109353;28;20027;-68
2023/05/08 01:27:02;;;;;;;10.73;9.35;;;;;;;;;;5111044;28;20438;-72
2023/05/08 01:29:51;;;;;;;10.70;9.35;;;;;;;;;;5108929;28;20020;-72
2023/05/08 01:32:18;;;;;;;9.45;8.45;;;;;;;;;;5108680;28;20395;-67
2023/05/08 01:34:57;;;;;;;11.00;9.65;;;;;;;;;;5109224;28;20457;-68
2023/05/08 01:37:43;;;;;;;12.90;10.15;;;;;;;;;;5108994;28;20024;-71
2023/05/08 01:40:10;;;;;;;12.90;9.50;;;;;;;;;;5098960;28;20625;-71
2023/05/08 01:42:41;;;;;;;11.38;9.70;;;;;;;;;;5109994;28;20084;-70
2023/05/08 01:45:10;;;;;;;11.77;9.70;;;;;;;;;;5109473;28;20102;-70
2023/05/08 01:47:37;;;;;;;10.13;8.88;;;;;;;;;;5110390;28;20032;-72
2023/05/08 01:50:24;;;;;;;10.10;9.05;;;;;;;;;;5109734;28;20125;-71
2023/05/08 01:52:52;;;;;;;9.93;8.90;;;;;;;;;;5107974;28;20123;-70
2023/05/08 01:55:26;;;;;;;11.57;10.30;;;;;;;;;;5109107;28;20088;-71
2023/05/08 01:57:56;;;;;;;11.57;9.90;;;;;;;;;;5109888;28;20059;-71
2023/05/08 02:00:23;;;;;;;11.13;9.05;;;;;;;;;;5110213;28;20028;-69
2023/05/08 02:02:50;;;;;;;11.07;9.45;;;;;;;;;;5108238;28;20023;-71
2023/05/08 02:05:17;;;;;;;11.40;9.35;;;;;;;;;;5108516;28;20030;-71
2023/05/08 02:07:44;;;;;;;12.43;9.55;;;;;;;;;;5108332;28;20035;-71
2023/05/08 02:10:12;;;;;;;11.27;10.00;;;;;;;;;;5109156;27;20407;-61
2023/05/08 02:12:38;;;;;;;11.55;10.15;;;;;;;;;;5109868;28;20028;-70
2023/05/08 02:15:05;;;;;;;11.20;10.00;;;;;;;;;;5108321;28;20035;-69
2023/05/08 02:17:31;;;;;;;13.35;9.85;;;;;;;;;;5108534;28;20027;-71
2023/05/08 02:19:58;;;;;;;10.75;9.52;;;;;;;;;;5108910;28;20100;-72
2023/05/08 02:22:24;;;;;;;10.77;8.82;;;;;;;;;;5108441;28;20038;-71
2023/05/08 02:24:54;;;;;;;11.38;9.95;;;;;;;;;;5107861;28;20077;-72
2023/05/08 02:27:21;;;;;;;13.02;10.18;;;;;;;;;;5110907;28;20421;-70
2023/05/08 02:29:47;;;;;;;11.70;9.32;;;;;;;;;;5107926;28;20031;-70
2023/05/08 02:32:14;;;;;;;10.55;9.45;;;;;;;;;;5107461;28;20031;-70
2023/05/08 02:34:40;;;;;;;11.02;9.18;;;;;;;;;;5110647;28;20035;-61
2023/05/08 02:37:07;;;;;;;11.18;9.55;;;;;;;;;;5108517;28;20035;-71
2023/05/08 02:39:33;;;;;;;12.10;10.00;;;;;;;;;;5107989;28;20035;-72
2023/05/08 02:41:59;;;;;;;11.52;9.65;;;;;;;;;;5109266;28;20367;-70
2023/05/08 02:44:25;;;;;;;11.40;9.25;;;;;;;;;;5107422;28;20035;-71
2023/05/08 02:47:10;;;;;;;11.52;9.98;;;;;;;;;;5108956;28;20023;-71
2023/05/08 02:49:56;;;;;;;10.35;8.95;;;;;;;;;;5108956;28;20051;-70
2023/05/08 02:52:24;;;;;;;10.13;8.88;;;;;;;;;;5107281;28;20119;-71
2023/05/08 02:55:05;;;;;;;12.25;10.07;;;;;;;;;;5110161;28;20566;-67
2023/05/08 02:57:36;;;;;;;10.88;9.60;;;;;;;;;;5107452;28;20034;-71
2023/05/08 03:00:07;;;;;;;11.98;9.30;;;;;;;;;;5107223;28;20462;-72
2023/05/08 03:03:05;;;;;;;10.82;9.43;;;;;;;;;;5109969;28;20372;-72
2023/05/08 03:05:33;;;;;;;9.57;8.35;;;;;;;;;;5073201;28;20032;-72
2023/05/08 03:08:02;;;;;;;13.32;9.38;;;;;;;;;;5108498;28;20058;-65
2023/05/08 03:10:31;;;;;;;10.68;9.07;;;;;;;;;;5110095;28;20368;-70
2023/05/08 03:12:57;;;;;;;9.95;8.55;;;;;;;;;;5106863;28;20035;-62
2023/05/08 03:15:26;;;;;;;9.32;8.32;;;;;;;;;;5110020;28;20016;-70
2023/05/08 03:17:54;;;;;;;13.52;9.38;;;;;;;;;;5106812;28;20059;-69
2023/05/08 03:20:21;;;;;;;11.25;9.23;;;;;;;;;;5107198;28;20032;-70
2023/05/08 03:22:48;;;;;;;9.63;8.27;;;;;;;;;;5109542;28;20019;-71
2023/05/08 03:25:16;;;;;;;9.90;8.23;;;;;;;;;;5107050;28;20050;-70
2023/05/08 03:27:43;;;;;;;10.07;8.88;;;;;;;;;;5109477;28;20019;-70
2023/05/08 03:30:10;;;;;;;9.02;8.07;;;;;;;;;;5109588;28;20020;-70
2023/05/08 03:32:37;;;;;;;9.75;8.10;;;;;;;;;;5107163;28;20110;-71
2023/05/08 03:35:04;;;;;;;11.23;8.60;;;;;;;;;;5106507;28;20031;-69
2023/05/08 03:37:30;;;;;;;9.02;8.05;;;;;;;;;;5106507;28;20031;-70
2023/05/08 03:39:56;;;;;;;9.43;8.18;;;;;;;;;;5107034;28;20042;-71
2023/05/08 03:42:23;;;;;;;10.23;7.78;;;;;;;;;;5107907;28;20514;-71
2023/05/08 03:44:53;;;;;;;10.00;8.40;;;;;;;;;;5104777;28;20042;-71
2023/05/08 03:47:20;;;;;;;9.75;7.93;;;;;;;;;;5107848;28;20043;-71
2023/05/08 03:49:46;;;;;;;8.57;7.47;;;;;;;;;;5106661;28;20035;-68
2023/05/08 03:52:12;;;;;;;9.75;7.68;;;;;;;;;;5107013;28;20028;-71
2023/05/08 03:54:39;;;;;;;8.48;7.57;;;;;;;;;;5105516;28;20403;-71
2023/05/08 03:57:05;;;;;;;7.47;6.68;;;;;;;;;;5108286;28;20027;-65
2023/05/08 03:59:40;;;;;;;8.88;7.90;;;;;;;;;;5106988;28;20043;-69
2023/05/08 04:02:19;;;;;;;8.48;7.22;;;;;;;;;;5107109;28;20015;-70
2023/05/08 04:04:47;;;;;;;8.70;7.80;;;;;;;;;;5106798;28;20032;-70
2023/05/08 04:07:21;;;;;;;8.82;7.30;;;;;;;;;;5106912;28;20024;-70
2023/05/08 04:10:06;;;;;;;8.02;7.22;;;;;;;;;;5107194;28;20038;-71
2023/05/08 04:12:55;;;;;;;8.15;7.25;;;;;;;;;;5108541;28;20027;-71
2023/05/08 04:15:26;;;;;;;7.20;6.50;;;;;;;;;;5106268;28;20509;-72
2023/05/08 04:17:57;;;;;;;10.73;7.53;;;;;;;;;;5106700;28;20028;-70
2023/05/08 04:20:25;;;;;;;7.75;6.40;;;;;;;;;;5106793;28;20039;-66
2023/05/08 04:22:52;;;;;;;8.43;7.35;;;;;;;;;;5105509;28;20023;-68
2023/05/08 04:25:19;;;;;;;7.20;6.28;;;;;;;;;;5106753;28;20028;-72
2023/05/08 04:27:45;;;;;;;8.05;6.82;;;;;;;;;;5108231;28;20024;-71
2023/05/08 04:30:12;;;;;;;7.10;6.40;;;;;;;;;;5106995;28;20024;-70
2023/05/08 04:32:40;;;;;;;8.43;6.90;;;;;;;;;;5106965;28;20079;-69
2023/05/08 04:35:06;;;;;;;7.63;6.50;;;;;;;;;;5106745;28;20024;-71
2023/05/08 04:37:32;;;;;;;7.43;6.32;;;;;;;;;;5106874;28;20051;-71
2023/05/08 04:39:58;;;;;;;7.22;6.45;;;;;;;;;;5106077;28;20098;-70
2023/05/08 04:42:27;;;;;;;8.05;6.63;;;;;;;;;;5106917;28;20479;-69
2023/05/08 04:44:53;;;;;;;6.55;5.88;;;;;;;;;;5106115;28;20081;-69
2023/05/08 04:47:20;;;;;;;8.20;6.72;;;;;;;;;;5108819;28;20098;-73
2023/05/08 04:49:46;;;;;;;7.00;5.82;;;;;;;;;;5110616;28;20062;-69
2023/05/08 04:52:12;;;;;;;7.05;6.35;;;;;;;;;;5110069;28;20024;-70
2023/05/08 04:54:38;;;;;;;6.90;6.20;;;;;;;;;;5110797;28;20035;-71
2023/05/08 04:57:06;;;;;;;6.90;6.20;;;;;;;;;;5111526;28;20653;-71
2023/05/08 04:59:32;;;;;;;8.32;5.65;;;;;;;;;;5111385;28;20558;-70
2023/05/08 05:02:01;;;;;;;7.13;6.10;;;;;;;;;;5110456;28;20038;-71
2023/05/08 05:04:27;;;;;;;6.70;5.68;;;;;;;;;;5112885;28;20051;-71
2023/05/08 05:06:53;;;;;;;6.97;5.75;;;;;;;;;;5109347;28;20047;-71
2023/05/08 05:09:19;;;;;;;5.65;5.07;;;;;;;;;;5110717;28;20491;-70
2023/05/08 05:11:45;;;;;;;6.45;5.72;;;;;;;;;;5111606;28;20028;-70
2023/05/08 05:14:11;;;;;;;6.32;5.30;;;;;;;;;;5110387;28;20080;-64
2023/05/08 05:16:37;;;;;;;7.45;5.40;;;;;;;;;;5110106;28;20106;-70
2023/05/08 05:19:03;;;;;;;6.07;5.47;;;;;;;;;;5109416;28;20115;-69
2023/05/08 05:21:29;;;;;;;6.07;5.43;;;;;;;;;;5110557;28;20039;-70
2023/05/08 05:23:55;;;;;;;5.88;4.85;;;;;;;;;;5113007;28;20024;-70
2023/05/08 05:26:22;;;;;;;5.85;5.25;;;;;;;;;;5114122;28;20433;-69
2023/05/08 05:28:48;;;;;;;5.97;5.20;;;;;;;;;;5113640;28;20019;-70
2023/05/08 05:31:14;;;;;;;6.80;6.05;;;;;;;;;;5114158;28;20031;-65
2023/05/08 05:33:41;;;;;;;5.95;5.32;;;;;;;;;;5110425;28;20144;-61
2023/05/08 05:36:07;;;;;;;6.20;5.38;;;;;;;;;;5109938;28;20019;-69
2023/05/08 05:38:33;;;;;;;8.05;5.70;;;;;;;;;;5108953;28;20064;-68
2023/05/08 05:40:59;;;;;;;6.18;4.95;;;;;;;;;;5109652;28;20023;-68
2023/05/08 05:43:25;;;;;;;5.65;5.05;;;;;;;;;;5109657;28;20016;-69
2023/05/08 05:45:51;;;;;;;6.00;5.03;;;;;;;;;;5109616;28;20058;-69
2023/05/08 05:48:17;;;;;;;6.10;5.22;;;;;;;;;;5110117;28;20023;-70
2023/05/08 05:50:43;;;;;;;6.28;5.63;;;;;;;;;;5109185;28;20517;-70
2023/05/08 05:53:09;;;;;;;7.68;5.40;;;;;;;;;;5109653;28;20106;-69
2023/05/08 05:55:35;;;;;;;6.72;5.88;;;;;;;;;;5109381;28;20027;-69
2023/05/08 05:58:01;;;;;;;6.05;5.45;;;;;;;;;;5110036;28;20070;-67
2023/05/08 06:00:27;;;;;;;5.95;5.35;;;;;;;;;;5109810;28;20046;-69
2023/05/08 06:02:53;;;;;;;6.40;5.50;;;;;;;;;;5110790;28;20058;-70
2023/05/08 06:05:19;;;;;;;6.90;6.10;;;;;;;;;;5108701;28;20497;-67
2023/05/08 06:07:45;;;;;;;8.05;5.38;;;;;;;;;;5109019;28;20026;-67
2023/05/08 06:10:12;;;;;;;6.60;5.75;;;;;;;;;;5110150;28;20483;-64
2023/05/08 06:12:38;;;;;;;5.90;5.05;;;;;;;;;;5108887;28;20104;-70
2023/05/08 06:15:04;;;;;;;5.75;5.15;;;;;;;;;;5108643;28;20461;-63
2023/05/08 06:17:30;;;;;;;7.75;5.25;;;;;;;;;;5108760;28;20496;-69
2023/05/08 06:19:56;;;;;;;6.95;5.63;;;;;;;;;;5107961;28;20479;-67
2023/05/08 06:22:23;;;;;;;7.03;5.38;;;;;;;;;;5108841;28;20518;-61
2023/05/08 06:24:52;;;;;;;6.88;5.95;;;;;;;;;;5108463;28;20023;-71
2023/05/08 06:27:18;;;;;;;6.13;5.22;;;;;;;;;;5110097;28;20031;-74
2023/05/08 06:29:44;;;;;;;5.95;5.35;;;;;;;;;;5108539;28;20462;-73
2023/05/08 06:32:10;;;;;;;6.75;5.85;;;;;;;;;;5109318;28;20031;-58
2023/05/08 06:34:36;;;;;;;7.70;5.65;;;;;;;;;;5108457;28;20501;-62
2023/05/08 06:37:02;;;;;;;9.30;5.90;;;;;;;;;;5108136;28;20028;-73
2023/05/08 06:39:28;;;;;;;6.32;5.47;;;;;;;;;;5108924;28;20043;-74
2023/05/08 06:41:54;;;;;;;5.97;4.75;;;;;;;;;;5108309;28;20480;-70
2023/05/08 06:44:20;;;;;;;9.18;5.47;;;;;;;;;;5110910;28;20028;-75
2023/05/08 06:46:46;;;;;;;7.55;5.45;;;;;;;;;;5106552;28;20019;-75
2023/05/08 06:49:12;;;;;;;7.95;5.32;;;;;;;;;;5106658;28;20031;-72
2023/05/08 06:51:38;;;;;;;7.93;5.03;;;;;;;;;;5112740;28;20028;-71
2023/05/08 06:54:07;;;;;;;9.77;6.10;;;;;;;;;;5111017;28;20072;-73
2023/05/08 06:56:34;;;;;;;6.60;5.80;;;;;;;;;;5112146;27;20027;-72
2023/05/08 06:59:00;;;;;;;7.68;4.63;;;;;;;;;;5111720;28;20035;-72
2023/05/08 07:01:26;;;;;;;7.60;5.63;;;;;;;;;;5112296;28;20112;-73
2023/05/08 07:03:52;;;;;;;10.23;5.60;;;;;;;;;;5110643;28;20508;-69
2023/05/08 07:06:18;;;;;;;7.18;5.18;;;;;;;;;;5111933;28;20016;-69
2023/05/08 07:08:44;;;;;;;10.18;5.80;;;;;;;;;;5111268;28;20081;-58
2023/05/08 07:11:10;;;;;;;8.52;5.90;;;;;;;;;;5111331;28;20028;-59
2023/05/08 07:13:36;;;;;;;6.30;5.70;;;;;;;;;;5111898;28;20611;-72
2023/05/08 07:16:04;;;;;;;7.53;6.35;;;;;;;;;;5111204;28;20020;-72
2023/05/08 07:18:30;;;;;;;8.80;6.32;;;;;;;;;;5111661;28;20522;-72
2023/05/08 07:20:56;;;;;;;7.78;6.18;;;;;;;;;;5111227;28;20031;-72
2023/05/08 07:23:22;;;;;;;6.40;5.40;;;;;;;;;;5111134;28;20023;-72
2023/05/08 07:25:48;;;;;;;6.90;5.40;;;;;;;;;;5110758;28;20067;-57
2023/05/08 07:28:14;;;;;;;6.97;6.03;;;;;;;;;;5110801;28;20027;-71
2023/05/08 07:30:40;;;;;;;7.22;6.03;;;;;;;;;;5111557;28;20160;-56
2023/05/08 07:33:06;;;;;;;8.23;6.38;;;;;;;;;;5111459;28;20027;-72
2023/05/08 07:35:32;;;;;;;7.65;6.47;;;;;;;;;;5111044;28;20475;-61
2023/05/08 07:37:58;;;;;;;8.88;6.60;;;;;;;;;;5111105;28;20024;-70
2023/05/08 07:40:24;;;;;;;9.52;7.35;;;;;;;;;;5111113;28;20036;-70
2023/05/08 07:42:50;;;;;;;8.20;7.07;;;;;;;;;;5111226;27;20028;-70
2023/05/08 07:45:16;;;;;;;7.70;6.60;;;;;;;;;;5111686;28;20502;-71
2023/05/08 07:47:49;;;;;;;7.72;6.65;;;;;;;;;;5111474;28;20025;-70
2023/05/08 07:50:15;;;;;;;10.68;7.47;;;;;;;;;;5110648;28;20068;-71
2023/05/08 07:52:41;;;;;;;10.02;6.28;;;;;;;;;;5111156;28;20039;-55
2023/05/08 07:55:07;;;;;;;8.63;7.40;;;;;;;;;;5110001;28;20027;-60
2023/05/08 07:57:36;;;;;;;7.63;6.82;;;;;;;;;;5109328;28;20030;-72
2023/05/08 08:00:03;;;;;;;8.60;6.63;;;;;;;;;;5110571;28;20036;-69
2023/05/08 08:02:29;;;;;;;11.00;6.43;;;;;;;;;;5111061;28;20510;-69
2023/05/08 08:04:55;;;;;;;10.85;6.30;;;;;;;;;;5110327;28;20050;-58
2023/05/08 08:07:21;;;;;;;8.27;6.75;;;;;;;;;;5094372;28;20476;-52
2023/05/08 08:09:47;;;;;;;12.60;7.05;;;;;;;;;;5090831;28;20025;-57
2023/05/08 08:12:13;;;;;;;12.45;7.95;;;;;;;;;;5091178;28;20035;-69
2023/05/08 08:14:39;;;;;;;19.02;9.27;;;;;;;;;;5094984;28;20043;-68
2023/05/08 08:17:05;;;;;;;16.38;11.20;;;;;;;;;;5110715;28;20032;-58
2023/05/08 08:19:31;;;;;;;22.88;12.60;;;;;;;;;;5108816;28;20105;-68
2023/05/08 08:21:57;;;;;;;24.23;14.65;;;;;;;;;;5110485;28;20528;-56
2023/05/08 08:24:24;;;;;;;23.30;14.45;;;;;;;;;;5113908;27;20402;-67
2023/05/08 08:26:50;;;;;;;26.08;15.32;;;;;;;;;;5113886;28;20026;-65
2023/05/08 08:29:16;;;;;;;22.08;15.45;;;;;;;;;;5114005;28;20031;-65
2023/05/08 08:31:42;;;;;;;23.88;14.98;;;;;;;;;;5111150;28;20494;-68
2023/05/08 08:34:08;;;;;;;21.67;15.23;;;;;;;;;;5114422;28;20023;-66
2023/05/08 08:36:34;;;;;;;25.33;15.35;;;;;;;;;;5114007;28;20364;-69
2023/05/08 08:39:00;;;;;;;18.00;13.65;;;;;;;;;;5115425;27;20065;-68
2023/05/08 08:41:27;;;;;;;27.17;15.02;;;;;;;;;;5114698;28;20031;-65
2023/05/08 08:43:54;;;;;;;21.70;14.70;;;;;;;;;;5114698;28;20036;-60
2023/05/08 08:46:21;;;;;;;20.55;14.13;;;;;;;;;;5130586;27;20023;-65
2023/05/08 08:48:48;;;;;;;22.52;14.48;;;;;;;;;;5135223;27;20031;-58
2023/05/08 08:51:18;;;;;;;22.50;14.38;;;;;;;;;;5118088;27;20496;-68
2023/05/08 08:53:46;;;;;;;20.05;12.98;;;;;;;;;;5114058;28;20036;-69
2023/05/08 08:56:13;;;;;;;21.88;12.80;;;;;;;;;;5114904;28;20026;-68
2023/05/08 08:58:45;;;;;;;21.30;14.10;;;;;;;;;;5115557;27;20063;-69
2023/05/08 09:01:14;;;;;;;21.27;13.13;;;;;;;;;;5123958;27;20023;-63
2023/05/08 09:03:40;;;;;;;17.13;12.52;;;;;;;;;;5123656;27;20062;-64
2023/05/08 09:06:06;;;;;;;19.30;11.40;;;;;;;;;;5134973;27;20055;-69
2023/05/08 09:08:33;;;;;;;20.75;11.88;;;;;;;;;;5135251;27;20031;-56
2023/05/08 09:11:01;;;;;;;19.23;12.50;;;;;;;;;;5134743;27;20106;-58
2023/05/08 09:13:28;;;;;;;18.30;11.77;;;;;;;;;;5115954;27;20023;-67
2023/05/08 09:15:54;;;;;;;19.13;12.88;;;;;;;;;;5114149;28;20096;-68
2023/05/08 09:18:20;;;;;;;18.88;12.45;;;;;;;;;;5113658;28;20024;-58
2023/05/08 09:20:46;;;;;;;18.58;11.15;;;;;;;;;;5114000;28;20035;-58
2023/05/08 09:23:16;;;;;;;17.98;12.02;;;;;;;;;;5114302;28;20046;-68
2023/05/08 09:25:46;;;;;;;18.85;11.68;;;;;;;;;;5113944;28;20483;-58
2023/05/08 09:28:19;;;;;;;20.30;12.10;;;;;;;;;;5114189;28;20027;-58
2023/05/08 09:30:50;;;;;;;16.83;11.02;;;;;;;;;;5113482;28;20387;-58
2023/05/08 09:33:16;;;;;;;14.75;9.93;;;;;;;;;;5111503;28;20043;-62
2023/05/08 09:35:42;;;;;;;13.70;9.45;;;;;;;;;;5113742;27;20015;-57
2023/05/08 09:38:08;;;;;;;15.52;10.18;;;;;;;;;;5114169;28;20067;-65
2023/05/08 09:40:35;;;;;;;16.52;10.93;;;;;;;;;;5113911;28;20111;-68
2023/05/08 09:43:14;;;;;;;14.57;11.57;;;;;;;;;;5113063;28;20035;-62
2023/05/08 09:45:41;;;;;;;13.35;9.80;;;;;;;;;;5112968;27;20023;-57
2023/05/08 09:48:08;;;;;;;15.93;10.82;;;;;;;;;;5113944;28;20028;-68
2023/05/08 09:50:34;;;;;;;14.60;10.50;;;;;;;;;;5112988;28;20106;-58
2023/05/08 09:53:00;;;;;;;14.60;9.82;;;;;;;;;;5112826;28;20046;-55
2023/05/08 09:55:26;;;;;;;16.10;10.88;;;;;;;;;;5113410;27;20023;-65
2023/05/08 09:57:54;;;;;;;15.07;10.02;;;;;;;;;;5113112;28;20368;-68
2023/05/08 10:00:21;;;;;;;14.05;10.05;;;;;;;;;;5111020;28;20088;-62
2023/05/08 10:03:00;;;;;;;13.65;10.35;;;;;;;;;;5110840;28;20078;-68
2023/05/08 10:05:26;;;;;;;13.27;9.55;;;;;;;;;;5113486;28;20041;-69
2023/05/08 10:07:52;;;;;;;11.82;9.10;;;;;;;;;;5112977;28;20030;-69
2023/05/08 10:10:30;;;;;;;12.70;9.45;;;;;;;;;;5113293;28;20024;-65
2023/05/08 10:12:57;;;;;;;16.58;10.52;;;;;;;;;;5113137;28;20020;-59
2023/05/08 10:15:25;;;;;;;13.90;10.38;;;;;;;;;;5111819;27;21455;-71
2023/05/08 10:17:54;;;;;;;13.88;8.93;;;;;;;;;;5110221;28;20031;-69
2023/05/08 10:20:20;;;;;;;13.77;9.45;;;;;;;;;;5111118;28;20031;-60
2023/05/08 10:22:47;;;;;;;17.13;10.80;;;;;;;;;;5111318;28;20069;-67
2023/05/08 10:25:17;;;;;;;16.55;10.52;;;;;;;;;;5111331;28;20022;-68
2023/05/08 10:27:43;;;;;;;16.35;10.20;;;;;;;;;;5111041;28;20019;-68
2023/05/08 10:30:09;;;;;;;19.48;11.50;;;;;;;;;;5109044;28;20023;-54
2023/05/08 10:32:41;;;;;;;15.77;11.18;;;;;;;;;;5110931;28;20084;-64
2023/05/08 10:35:08;;;;;;;17.85;11.95;;;;;;;;;;5111382;28;20061;-68
2023/05/08 10:37:35;;;;;;;18.08;11.32;;;;;;;;;;5110738;28;20036;-61
2023/05/08 10:40:02;;;;;;;20.05;13.30;;;;;;;;;;5110826;28;20248;-64
2023/05/08 10:42:28;;;;;;;20.48;13.13;;;;;;;;;;5110530;28;20036;-69
2023/05/08 10:44:55;;;;;;;16.17;12.45;;;;;;;;;;5091825;28;20492;-70
2023/05/08 10:47:27;;;;;;;15.93;12.07;;;;;;;;;;5104576;28;20023;-67
2023/05/08 10:50:11;;;;;;;19.85;12.82;;;;;;;;;;5112300;28;20494;-70
2023/05/08 10:52:56;;;;;;;22.02;12.52;;;;;;;;;;5111093;28;20433;-59
2023/05/08 10:55:28;;;;;;;17.35;13.15;;;;;;;;;;5111256;28;20016;-70
2023/05/08 10:58:05;;;;;;;19.45;13.63;;;;;;;;;;5111227;28;20089;-61
2023/05/08 11:00:32;;;;;;;18.92;11.52;;;;;;;;;;5110811;28;20073;-70
2023/05/08 11:03:05;;;;;;;16.17;10.55;;;;;;;;;;5091700;28;20020;-68
2023/05/08 11:05:31;;;;;;;16.30;11.45;;;;;;;;;;5103066;28;20088;-70
2023/05/08 11:07:58;;;;;;;17.45;11.00;;;;;;;;;;5111618;28;20027;-70
2023/05/08 11:10:30;;;;;;;16.75;10.93;;;;;;;;;;5110841;27;20410;-70
2023/05/08 11:12:57;;;;;;;20.05;11.65;;;;;;;;;;5110344;28;20108;-70
2023/05/08 11:15:39;;;;;;;17.23;10.32;;;;;;;;;;5107859;28;20019;-70
2023/05/08 11:18:10;;;;;;;18.23;9.82;;;;;;;;;;5108270;28;20028;-60
2023/05/08 11:20:39;;;;;;;14.75;10.88;;;;;;;;;;5110336;28;20047;-55
2023/05/08 11:23:21;;;;;;;12.40;10.30;;;;;;;;;;5107613;28;20494;-63
2023/05/08 11:25:47;;;;;;;15.05;9.85;;;;;;;;;;5107992;28;20556;-65
2023/05/08 11:28:16;;;;;;;13.77;9.88;;;;;;;;;;5110058;28;20020;-68
2023/05/08 11:30:43;;;;;;;13.43;10.00;;;;;;;;;;5109444;28;20089;-70
2023/05/08 11:33:09;;;;;;;12.70;9.68;;;;;;;;;;5110597;28;20020;-66
2023/05/08 11:35:40;;;;;;;14.05;8.80;;;;;;;;;;5109850;28;20077;-66
2023/05/08 11:38:34;;;;;;;13.32;9.18;;;;;;;;;;5108380;28;20015;-70
2023/05/08 11:41:07;;;;;;;12.18;9.48;;;;;;;;;;5105383;28;20043;-54
2023/05/08 11:43:36;;;;;;;14.95;8.77;;;;;;;;;;5110144;28;20027;-70
2023/05/08 11:46:03;;;;;;;12.18;8.82;;;;;;;;;;5109512;28;20031;-70
2023/05/08 11:48:32;;;;;;;13.77;8.85;;;;;;;;;;5107359;28;20337;-70
2023/05/08 11:50:59;;;;;;;12.70;8.65;;;;;;;;;;5110360;28;20031;-70
2023/05/08 11:53:25;;;;;;;15.60;8.95;;;;;;;;;;5111670;28;20044;-70
2023/05/08 11:55:54;;;;;;;11.88;8.73;;;;;;;;;;5121084;27;20039;-64
2023/05/08 11:58:20;;;;;;;12.77;8.18;;;;;;;;;;5110396;28;20060;-70
2023/05/08 12:00:48;;;;;;;11.13;7.32;;;;;;;;;;5109759;28;20027;-68
2023/05/08 12:03:20;;;;;;;12.57;9.23;;;;;;;;;;5109269;28;20024;-69
2023/05/08 12:05:47;;;;;;;10.25;7.22;;;;;;;;;;5106208;28;20513;-69
2023/05/08 12:08:13;;;;;;;11.68;7.88;;;;;;;;;;5109828;28;20023;-70
2023/05/08 12:10:40;;;;;;;13.30;8.70;;;;;;;;;;5110635;28;20043;-70
2023/05/08 12:13:19;;;;;;;13.10;8.77;;;;;;;;;;5111538;28;20095;-70
2023/05/08 12:15:46;;;;;;;10.82;7.57;;;;;;;;;;5109753;28;20069;-69
2023/05/08 12:18:12;;;;;;;14.80;9.13;;;;;;;;;;5109322;28;20098;-57
2023/05/08 12:20:38;;;;;;;12.20;7.18;;;;;;;;;;5131544;28;20485;-56
2023/05/08 12:23:04;;;;;;;11.20;7.75;;;;;;;;;;5131308;28;20023;-58
2023/05/08 12:25:30;;;;;;;15.48;9.63;;;;;;;;;;5113233;28;20023;-56
2023/05/08 12:27:56;;;;;;;10.27;7.85;;;;;;;;;;5115355;28;20068;-59
2023/05/08 12:30:22;;;;;;;8.45;6.93;;;;;;;;;;5123004;28;20076;-56
2023/05/08 12:32:49;;;;;;;10.50;7.40;;;;;;;;;;5109990;28;20031;-64
2023/05/08 12:35:15;;;;;;;10.82;7.30;;;;;;;;;;5110468;28;20035;-69
2023/05/08 12:37:41;;;;;;;13.98;7.97;;;;;;;;;;5110965;28;20030;-68
2023/05/08 12:40:08;;;;;;;11.20;7.20;;;;;;;;;;5109240;28;20039;-70
2023/05/08 12:42:50;;;;;;;12.90;7.13;;;;;;;;;;5106254;28;20734;-69
2023/05/08 12:45:17;;;;;;;9.40;7.07;;;;;;;;;;5108389;28;20527;-68
2023/05/08 12:47:52;;;;;;;11.45;7.68;;;;;;;;;;5110258;28;20539;-69
2023/05/08 12:50:20;;;;;;;8.70;6.47;;;;;;;;;;5107084;28;20107;-55
2023/05/08 12:52:46;;;;;;;10.68;7.00;;;;;;;;;;5108991;28;20024;-70
2023/05/08 12:55:21;;;;;;;10.90;7.57;;;;;;;;;;5108980;28;20031;-69
2023/05/08 12:57:48;;;;;;;9.02;7.68;;;;;;;;;;5100064;28;20028;-70
2023/05/08 13:00:17;;;;;;;8.90;7.13;;;;;;;;;;5107729;28;20028;-69
2023/05/08 13:02:53;;;;;;;9.15;6.88;;;;;;;;;;5108828;28;20035;-66
2023/05/08 13:05:23;;;;;;;10.43;7.22;;;;;;;;;;5107035;28;20023;-62
2023/05/08 13:07:50;;;;;;;10.00;6.47;;;;;;;;;;5108005;28;20023;-58
2023/05/08 13:10:17;;;;;;;11.40;7.90;;;;;;;;;;5110604;28;20019;-70
2023/05/08 13:12:43;;;;;;;8.60;6.53;;;;;;;;;;5111181;27;20074;-57
2023/05/08 13:15:09;;;;;;;10.02;7.07;;;;;;;;;;5112449;28;20073;-58
2023/05/08 13:17:35;;;;;;;8.00;6.47;;;;;;;;;;5112274;28;20065;-69
2023/05/08 13:20:02;;;;;;;7.13;6.43;;;;;;;;;;5111596;28;20049;-63
2023/05/08 13:22:29;;;;;;;9.30;6.38;;;;;;;;;;5110851;28;20077;-70
2023/05/08 13:24:55;;;;;;;8.95;6.68;;;;;;;;;;5109559;28;20033;-68
2023/05/08 13:27:21;;;;;;;10.90;6.60;;;;;;;;;;5110003;28;20038;-69
2023/05/08 13:29:47;;;;;;;11.98;6.25;;;;;;;;;;5112208;28;20418;-64
2023/05/08 13:32:13;;;;;;;11.48;6.03;;;;;;;;;;5110144;28;20024;-58
2023/05/08 13:34:39;;;;;;;8.40;6.03;;;;;;;;;;5109973;27;20064;-71
2023/05/08 13:37:05;;;;;;;9.65;6.50;;;;;;;;;;5108814;28;20035;-67
2023/05/08 13:39:35;;;;;;;10.43;6.30;;;;;;;;;;5109913;28;20030;-56
2023/05/08 13:42:02;;;;;;;9.15;6.32;;;;;;;;;;5108080;28;20787;-57
2023/05/08 13:44:27;;;;;;;11.07;7.10;;;;;;;;;;5110351;28;20380;-67
2023/05/08 13:46:54;;;;;;;13.32;7.35;;;;;;;;;;5109615;28;20034;-66
2023/05/08 13:49:22;;;;;;;13.88;8.52;;;;;;;;;;5109986;28;20022;-66
2023/05/08 13:51:49;;;;;;;18.98;8.90;;;;;;;;;;5110139;28;20031;-69
2023/05/08 13:54:14;;;;;;;21.67;9.73;;;;;;;;;;5108908;28;20035;-60
2023/05/08 13:56:40;;;;;;;20.77;9.52;;;;;;;;;;5109099;28;20032;-58
2023/05/08 13:59:07;;;;;;;19.25;9.68;;;;;;;;;;5112151;28;20110;-59
2023/05/08 14:01:33;;;;;;;17.60;8.77;;;;;;;;;;5110788;28;20025;-70
2023/05/08 14:03:59;;;;;;;24.48;9.23;;;;;;;;;;5110176;28;20028;-69
2023/05/08 14:06:25;;;;;;;15.23;8.35;;;;;;;;;;5113117;28;20057;-70
2023/05/08 14:08:51;;;;;;;14.60;8.30;;;;;;;;;;5113205;28;20024;-69
2023/05/08 14:11:17;;;;;;;19.58;7.95;;;;;;;;;;5113320;28;20114;-65
2023/05/08 14:13:43;;;;;;;14.20;7.38;;;;;;;;;;5112842;28;20011;-69
2023/05/08 14:16:11;;;;;;;14.52;7.72;;;;;;;;;;5110882;28;20031;-64
2023/05/08 14:18:37;;;;;;;20.02;8.05;;;;;;;;;;5112494;28;20088;-56
2023/05/08 14:21:03;;;;;;;16.60;7.80;;;;;;;;;;5109127;28;20036;-69
2023/05/08 14:23:29;;;;;;;14.18;8.65;;;;;;;;;;5111374;28;20038;-62
2023/05/08 14:25:55;;;;;;;14.70;7.63;;;;;;;;;;5108323;28;20071;-63
2023/05/08 14:28:21;;;;;;;17.52;7.50;;;;;;;;;;5109956;28;20031;-69
2023/05/08 14:30:47;;;;;;;14.30;7.30;;;;;;;;;;5110407;28;20023;-69
2023/05/08 14:33:13;;;;;;;14.32;6.68;;;;;;;;;;5108940;28;20026;-69
2023/05/08 14:35:42;;;;;;;12.70;7.05;;;;;;;;;;5110371;28;20069;-69